sensor_id;sensor_type;location;lat;lon;timestamp;pressure;altitude;pressure_sealevel;temperature
40199;BMP280;25906;43.536;26.068;2023-12-29T00:01:03;99377.66;;;3.44
40199;BMP280;25906;43.536;26.068;2023-12-29T00:03:48;99378.06;;;3.46
40199;BMP280;25906;43.536;26.068;2023-12-29T00:06:38;99381.31;;;3.39
40199;BMP280;25906;43.536;26.068;2023-12-29T00:09:23;99377.75;;;3.28
40199;BMP280;25906;43.536;26.068;2023-12-29T00:12:09;99370.59;;;3.22
40199;BMP280;25906;43.536;26.068;2023-12-29T00:14:55;99368.63;;;3.15
40199;BMP280;25906;43.536;26.068;2023-12-29T00:17:40;99369.84;;;3.21
40199;BMP280;25906;43.536;26.068;2023-12-29T00:20:26;99374.34;;;3.24
40199;BMP280;25906;43.536;26.068;2023-12-29T00:23:11;99370.94;;;3.20
40199;BMP280;25906;43.536;26.068;2023-12-29T00:25:57;99378.47;;;3.25
40199;BMP280;25906;43.536;26.068;2023-12-29T00:28:43;99380.28;;;3.21
40199;BMP280;25906;43.536;26.068;2023-12-29T00:31:28;99384.50;;;3.29
40199;BMP280;25906;43.536;26.068;2023-12-29T00:34:14;99380.69;;;3.23
40199;BMP280;25906;43.536;26.068;2023-12-29T00:37:00;99377.38;;;3.26
40199;BMP280;25906;43.536;26.068;2023-12-29T00:39:45;99377.69;;;3.21
40199;BMP280;25906;43.536;26.068;2023-12-29T00:42:30;99381.81;;;3.22
40199;BMP280;25906;43.536;26.068;2023-12-29T00:45:16;99371.56;;;3.13
40199;BMP280;25906;43.536;26.068;2023-12-29T00:48:02;99379.28;;;3.29
40199;BMP280;25906;43.536;26.068;2023-12-29T00:50:48;99380.91;;;3.37
40199;BMP280;25906;43.536;26.068;2023-12-29T00:53:34;99385.63;;;3.28
40199;BMP280;25906;43.536;26.068;2023-12-29T00:56:20;99384.16;;;3.31
40199;BMP280;25906;43.536;26.068;2023-12-29T00:59:06;99388.31;;;3.32
40199;BMP280;25906;43.536;26.068;2023-12-29T01:01:52;99386.13;;;3.37
40199;BMP280;25906;43.536;26.068;2023-12-29T01:04:38;99384.63;;;3.36
40199;BMP280;25906;43.536;26.068;2023-12-29T01:07:24;99377.38;;;3.26
40199;BMP280;25906;43.536;26.068;2023-12-29T01:10:10;99375.56;;;3.30
40199;BMP280;25906;43.536;26.068;2023-12-29T01:12:55;99375.06;;;3.21
40199;BMP280;25906;43.536;26.068;2023-12-29T01:15:41;99369.59;;;3.07
40199;BMP280;25906;43.536;26.068;2023-12-29T01:18:30;99362.16;;;3.09
40199;BMP280;25906;43.536;26.068;2023-12-29T01:21:15;99371.63;;;2.94
40199;BMP280;25906;43.536;26.068;2023-12-29T01:24:01;99371.25;;;2.92
40199;BMP280;25906;43.536;26.068;2023-12-29T01:26:48;99377.03;;;2.82
40199;BMP280;25906;43.536;26.068;2023-12-29T01:29:34;99365.94;;;2.89
40199;BMP280;25906;43.536;26.068;2023-12-29T01:32:19;99371.13;;;2.85
40199;BMP280;25906;43.536;26.068;2023-12-29T01:35:05;99368.00;;;2.80
40199;BMP280;25906;43.536;26.068;2023-12-29T01:37:51;99366.22;;;2.84
40199;BMP280;25906;43.536;26.068;2023-12-29T01:40:44;99375.84;;;2.80
40199;BMP280;25906;43.536;26.068;2023-12-29T01:43:29;99374.56;;;2.70
40199;BMP280;25906;43.536;26.068;2023-12-29T01:46:15;99371.00;;;2.78
40199;BMP280;25906;43.536;26.068;2023-12-29T01:49:01;99363.53;;;2.80
40199;BMP280;25906;43.536;26.068;2023-12-29T01:51:50;99360.47;;;2.74
40199;BMP280;25906;43.536;26.068;2023-12-29T01:54:36;99361.69;;;2.81
40199;BMP280;25906;43.536;26.068;2023-12-29T01:57:25;99357.84;;;2.74
40199;BMP280;25906;43.536;26.068;2023-12-29T02:00:12;99373.53;;;2.74
40199;BMP280;25906;43.536;26.068;2023-12-29T02:02:58;99352.31;;;2.80
40199;BMP280;25906;43.536;26.068;2023-12-29T02:05:45;99358.69;;;2.79
40199;BMP280;25906;43.536;26.068;2023-12-29T02:08:30;99358.72;;;2.59
40199;BMP280;25906;43.536;26.068;2023-12-29T02:11:17;99356.16;;;2.44
40199;BMP280;25906;43.536;26.068;2023-12-29T02:14:02;99354.44;;;2.51
40199;BMP280;25906;43.536;26.068;2023-12-29T02:17:25;99344.16;;;2.39
40199;BMP280;25906;43.536;26.068;2023-12-29T02:20:11;99343.44;;;2.42
40199;BMP280;25906;43.536;26.068;2023-12-29T02:22:57;99345.25;;;2.38
40199;BMP280;25906;43.536;26.068;2023-12-29T02:25:42;99343.31;;;2.35
40199;BMP280;25906;43.536;26.068;2023-12-29T02:28:28;99338.25;;;2.23
40199;BMP280;25906;43.536;26.068;2023-12-29T02:31:16;99333.16;;;2.11
40199;BMP280;25906;43.536;26.068;2023-12-29T02:34:03;99319.53;;;2.02
40199;BMP280;25906;43.536;26.068;2023-12-29T02:36:51;99333.00;;;2.04
40199;BMP280;25906;43.536;26.068;2023-12-29T02:39:37;99321.19;;;2.10
40199;BMP280;25906;43.536;26.068;2023-12-29T02:42:23;99336.94;;;2.13
40199;BMP280;25906;43.536;26.068;2023-12-29T02:45:08;99337.22;;;2.27
40199;BMP280;25906;43.536;26.068;2023-12-29T02:47:55;99325.13;;;2.19
40199;BMP280;25906;43.536;26.068;2023-12-29T02:50:41;99323.28;;;2.20
40199;BMP280;25906;43.536;26.068;2023-12-29T02:53:27;99331.19;;;2.23
40199;BMP280;25906;43.536;26.068;2023-12-29T02:56:12;99326.16;;;2.15
40199;BMP280;25906;43.536;26.068;2023-12-29T02:58:58;99325.78;;;2.16
40199;BMP280;25906;43.536;26.068;2023-12-29T03:01:43;99324.91;;;2.09
40199;BMP280;25906;43.536;26.068;2023-12-29T03:04:28;99323.69;;;1.87
40199;BMP280;25906;43.536;26.068;2023-12-29T03:07:14;99322.22;;;1.51
40199;BMP280;25906;43.536;26.068;2023-12-29T03:09:59;99321.47;;;1.35
40199;BMP280;25906;43.536;26.068;2023-12-29T03:12:45;99318.16;;;1.53
40199;BMP280;25906;43.536;26.068;2023-12-29T03:15:30;99320.34;;;1.67
40199;BMP280;25906;43.536;26.068;2023-12-29T03:18:16;99314.13;;;1.40
40199;BMP280;25906;43.536;26.068;2023-12-29T03:21:01;99312.38;;;1.29
40199;BMP280;25906;43.536;26.068;2023-12-29T03:23:47;99311.63;;;1.28
40199;BMP280;25906;43.536;26.068;2023-12-29T03:26:32;99303.69;;;1.56
40199;BMP280;25906;43.536;26.068;2023-12-29T03:29:18;99305.53;;;1.55
40199;BMP280;25906;43.536;26.068;2023-12-29T03:32:03;99310.00;;;1.90
40199;BMP280;25906;43.536;26.068;2023-12-29T03:34:49;99303.97;;;2.05
40199;BMP280;25906;43.536;26.068;2023-12-29T03:37:34;99309.47;;;2.19
40199;BMP280;25906;43.536;26.068;2023-12-29T03:40:20;99317.19;;;2.35
40199;BMP280;25906;43.536;26.068;2023-12-29T03:43:05;99303.09;;;2.40
40199;BMP280;25906;43.536;26.068;2023-12-29T03:45:51;99307.44;;;2.51
40199;BMP280;25906;43.536;26.068;2023-12-29T03:48:36;99312.38;;;2.56
40199;BMP280;25906;43.536;26.068;2023-12-29T03:51:22;99321.94;;;2.71
40199;BMP280;25906;43.536;26.068;2023-12-29T03:54:07;99318.47;;;3.09
40199;BMP280;25906;43.536;26.068;2023-12-29T03:56:53;99319.28;;;3.13
40199;BMP280;25906;43.536;26.068;2023-12-29T03:59:38;99314.13;;;3.17
40199;BMP280;25906;43.536;26.068;2023-12-29T04:02:24;99316.59;;;3.36
40199;BMP280;25906;43.536;26.068;2023-12-29T04:05:09;99311.16;;;3.48
40199;BMP280;25906;43.536;26.068;2023-12-29T04:07:55;99312.66;;;3.46
40199;BMP280;25906;43.536;26.068;2023-12-29T04:10:41;99302.84;;;3.39
40199;BMP280;25906;43.536;26.068;2023-12-29T04:13:26;99316.16;;;3.31
40199;BMP280;25906;43.536;26.068;2023-12-29T04:16:12;99310.03;;;3.46
40199;BMP280;25906;43.536;26.068;2023-12-29T04:18:57;99308.84;;;3.40
40199;BMP280;25906;43.536;26.068;2023-12-29T04:21:42;99310.78;;;3.20
40199;BMP280;25906;43.536;26.068;2023-12-29T04:24:28;99312.69;;;3.23
40199;BMP280;25906;43.536;26.068;2023-12-29T04:27:15;99304.06;;;3.19
40199;BMP280;25906;43.536;26.068;2023-12-29T04:30:01;99313.13;;;3.02
40199;BMP280;25906;43.536;26.068;2023-12-29T04:32:46;99310.63;;;3.09
40199;BMP280;25906;43.536;26.068;2023-12-29T04:35:32;99313.06;;;2.99
40199;BMP280;25906;43.536;26.068;2023-12-29T04:38:17;99314.94;;;2.75
40199;BMP280;25906;43.536;26.068;2023-12-29T04:41:05;99320.63;;;2.58
40199;BMP280;25906;43.536;26.068;2023-12-29T04:43:50;99310.88;;;2.55
40199;BMP280;25906;43.536;26.068;2023-12-29T04:46:36;99304.59;;;2.41
40199;BMP280;25906;43.536;26.068;2023-12-29T04:49:21;99319.94;;;2.42
40199;BMP280;25906;43.536;26.068;2023-12-29T04:52:07;99314.94;;;2.53
40199;BMP280;25906;43.536;26.068;2023-12-29T04:54:52;99321.06;;;2.64
40199;BMP280;25906;43.536;26.068;2023-12-29T04:57:38;99323.31;;;2.62
40199;BMP280;25906;43.536;26.068;2023-12-29T05:00:23;99327.28;;;2.56
40199;BMP280;25906;43.536;26.068;2023-12-29T05:03:09;99324.28;;;2.54
40199;BMP280;25906;43.536;26.068;2023-12-29T05:05:54;99317.97;;;2.78
40199;BMP280;25906;43.536;26.068;2023-12-29T05:08:40;99317.53;;;2.75
40199;BMP280;25906;43.536;26.068;2023-12-29T05:11:25;99317.75;;;2.86
40199;BMP280;25906;43.536;26.068;2023-12-29T05:14:11;99313.19;;;3.06
40199;BMP280;25906;43.536;26.068;2023-12-29T05:16:56;99307.78;;;3.18
40199;BMP280;25906;43.536;26.068;2023-12-29T05:19:42;99312.00;;;3.26
40199;BMP280;25906;43.536;26.068;2023-12-29T05:22:28;99310.69;;;3.39
40199;BMP280;25906;43.536;26.068;2023-12-29T05:25:13;99307.47;;;3.49
40199;BMP280;25906;43.536;26.068;2023-12-29T05:27:59;99310.97;;;3.61
40199;BMP280;25906;43.536;26.068;2023-12-29T05:30:44;99305.97;;;3.52
40199;BMP280;25906;43.536;26.068;2023-12-29T05:33:30;99306.84;;;3.59
40199;BMP280;25906;43.536;26.068;2023-12-29T05:36:16;99306.56;;;3.65
40199;BMP280;25906;43.536;26.068;2023-12-29T05:39:01;99306.44;;;3.57
40199;BMP280;25906;43.536;26.068;2023-12-29T05:41:47;99305.63;;;3.53
40199;BMP280;25906;43.536;26.068;2023-12-29T05:44:36;99307.00;;;3.70
40199;BMP280;25906;43.536;26.068;2023-12-29T05:47:21;99306.00;;;3.82
40199;BMP280;25906;43.536;26.068;2023-12-29T05:50:07;99310.13;;;3.83
40199;BMP280;25906;43.536;26.068;2023-12-29T05:52:52;99307.88;;;3.81
40199;BMP280;25906;43.536;26.068;2023-12-29T05:55:38;99305.63;;;3.83
40199;BMP280;25906;43.536;26.068;2023-12-29T05:58:24;99299.69;;;3.86
40199;BMP280;25906;43.536;26.068;2023-12-29T06:01:09;99304.66;;;3.95
40199;BMP280;25906;43.536;26.068;2023-12-29T06:03:55;99303.78;;;3.84
40199;BMP280;25906;43.536;26.068;2023-12-29T06:06:43;99306.00;;;3.82
40199;BMP280;25906;43.536;26.068;2023-12-29T06:09:29;99309.75;;;3.84
40199;BMP280;25906;43.536;26.068;2023-12-29T06:12:15;99321.31;;;3.80
40199;BMP280;25906;43.536;26.068;2023-12-29T06:15:00;99322.06;;;3.80
40199;BMP280;25906;43.536;26.068;2023-12-29T06:17:46;99320.06;;;3.70
40199;BMP280;25906;43.536;26.068;2023-12-29T06:20:31;99309.38;;;3.82
40199;BMP280;25906;43.536;26.068;2023-12-29T06:23:17;99320.22;;;3.81
40199;BMP280;25906;43.536;26.068;2023-12-29T06:26:02;99316.16;;;3.87
40199;BMP280;25906;43.536;26.068;2023-12-29T06:28:48;99314.63;;;3.82
40199;BMP280;25906;43.536;26.068;2023-12-29T06:31:34;99322.81;;;3.81
40199;BMP280;25906;43.536;26.068;2023-12-29T06:34:19;99323.69;;;3.92
40199;BMP280;25906;43.536;26.068;2023-12-29T06:37:05;99328.16;;;3.88
40199;BMP280;25906;43.536;26.068;2023-12-29T06:39:50;99325.19;;;3.89
40199;BMP280;25906;43.536;26.068;2023-12-29T06:42:36;99321.53;;;3.97
40199;BMP280;25906;43.536;26.068;2023-12-29T06:45:21;99320.88;;;4.08
40199;BMP280;25906;43.536;26.068;2023-12-29T06:48:07;99319.56;;;4.24
40199;BMP280;25906;43.536;26.068;2023-12-29T06:50:52;99319.97;;;4.26
40199;BMP280;25906;43.536;26.068;2023-12-29T06:53:38;99319.97;;;4.26
40199;BMP280;25906;43.536;26.068;2023-12-29T06:56:23;99321.56;;;4.34
40199;BMP280;25906;43.536;26.068;2023-12-29T06:59:09;99322.66;;;4.33
40199;BMP280;25906;43.536;26.068;2023-12-29T07:01:54;99330.34;;;4.56
40199;BMP280;25906;43.536;26.068;2023-12-29T07:04:41;99337.66;;;4.77
40199;BMP280;25906;43.536;26.068;2023-12-29T07:07:27;99329.47;;;4.82
40199;BMP280;25906;43.536;26.068;2023-12-29T07:10:13;99329.56;;;4.96
40199;BMP280;25906;43.536;26.068;2023-12-29T07:12:59;99330.91;;;5.23
40199;BMP280;25906;43.536;26.068;2023-12-29T07:15:45;99326.78;;;5.26
40199;BMP280;25906;43.536;26.068;2023-12-29T07:18:30;99334.78;;;5.51
40199;BMP280;25906;43.536;26.068;2023-12-29T07:21:17;99330.72;;;5.60
40199;BMP280;25906;43.536;26.068;2023-12-29T07:24:03;99331.88;;;5.63
40199;BMP280;25906;43.536;26.068;2023-12-29T07:26:49;99334.91;;;5.68
40199;BMP280;25906;43.536;26.068;2023-12-29T07:29:34;99334.94;;;5.79
40199;BMP280;25906;43.536;26.068;2023-12-29T07:32:20;99336.09;;;5.92
40199;BMP280;25906;43.536;26.068;2023-12-29T07:35:05;99336.09;;;5.92
40199;BMP280;25906;43.536;26.068;2023-12-29T07:37:51;99341.38;;;6.03
40199;BMP280;25906;43.536;26.068;2023-12-29T07:40:36;99340.31;;;6.15
40199;BMP280;25906;43.536;26.068;2023-12-29T07:43:22;99345.19;;;6.13
40199;BMP280;25906;43.536;26.068;2023-12-29T07:46:08;99343.72;;;6.43
40199;BMP280;25906;43.536;26.068;2023-12-29T07:48:53;99344.16;;;6.52
40199;BMP280;25906;43.536;26.068;2023-12-29T07:51:40;99343.03;;;6.53
40199;BMP280;25906;43.536;26.068;2023-12-29T07:54:26;99348.25;;;6.71
40199;BMP280;25906;43.536;26.068;2023-12-29T07:57:11;99353.16;;;6.90
40199;BMP280;25906;43.536;26.068;2023-12-29T07:59:57;99357.28;;;7.16
40199;BMP280;25906;43.536;26.068;2023-12-29T08:02:43;99359.09;;;7.37
40199;BMP280;25906;43.536;26.068;2023-12-29T08:05:28;99361.34;;;7.42
40199;BMP280;25906;43.536;26.068;2023-12-29T08:08:14;99354.16;;;7.60
40199;BMP280;25906;43.536;26.068;2023-12-29T08:10:59;99365.03;;;7.73
40199;BMP280;25906;43.536;26.068;2023-12-29T08:13:47;99362.66;;;7.93
40199;BMP280;25906;43.536;26.068;2023-12-29T08:16:37;99362.25;;;8.05
40199;BMP280;25906;43.536;26.068;2023-12-29T08:19:23;99361.06;;;8.09
40199;BMP280;25906;43.536;26.068;2023-12-29T08:22:08;99367.19;;;7.96
40199;BMP280;25906;43.536;26.068;2023-12-29T08:24:54;99360.69;;;8.11
40199;BMP280;25906;43.536;26.068;2023-12-29T08:27:39;99371.97;;;8.15
40199;BMP280;25906;43.536;26.068;2023-12-29T08:30:26;99375.69;;;8.24
40199;BMP280;25906;43.536;26.068;2023-12-29T08:33:12;99374.19;;;8.20
40199;BMP280;25906;43.536;26.068;2023-12-29T08:35:58;99376.47;;;8.14
40199;BMP280;25906;43.536;26.068;2023-12-29T08:38:46;99374.59;;;8.15
40199;BMP280;25906;43.536;26.068;2023-12-29T08:41:31;99366.63;;;8.29
40199;BMP280;25906;43.536;26.068;2023-12-29T08:44:17;99358.94;;;8.45
40199;BMP280;25906;43.536;26.068;2023-12-29T08:47:02;99357.38;;;8.55
40199;BMP280;25906;43.536;26.068;2023-12-29T08:49:48;99359.56;;;8.63
40199;BMP280;25906;43.536;26.068;2023-12-29T08:52:34;99352.03;;;8.62
40199;BMP280;25906;43.536;26.068;2023-12-29T08:55:20;99361.75;;;8.75
40199;BMP280;25906;43.536;26.068;2023-12-29T08:58:05;99363.09;;;8.94
40199;BMP280;25906;43.536;26.068;2023-12-29T09:00:51;99361.03;;;9.12
40199;BMP280;25906;43.536;26.068;2023-12-29T09:03:36;99353.34;;;9.25
40199;BMP280;25906;43.536;26.068;2023-12-29T09:06:22;99360.38;;;9.39
40199;BMP280;25906;43.536;26.068;2023-12-29T09:09:07;99351.69;;;9.38
40199;BMP280;25906;43.536;26.068;2023-12-29T09:12:04;99356.28;;;9.64
40199;BMP280;25906;43.536;26.068;2023-12-29T09:14:49;99358.38;;;9.80
40199;BMP280;25906;43.536;26.068;2023-12-29T09:17:35;99351.09;;;9.88
40199;BMP280;25906;43.536;26.068;2023-12-29T09:20:20;99350.44;;;10.07
40199;BMP280;25906;43.536;26.068;2023-12-29T09:23:06;99352.72;;;10.32
40199;BMP280;25906;43.536;26.068;2023-12-29T09:25:51;99350.19;;;10.48
40199;BMP280;25906;43.536;26.068;2023-12-29T09:28:37;99349.69;;;10.56
40199;BMP280;25906;43.536;26.068;2023-12-29T09:31:22;99343.22;;;10.81
40199;BMP280;25906;43.536;26.068;2023-12-29T09:34:08;99334.94;;;10.79
40199;BMP280;25906;43.536;26.068;2023-12-29T09:36:53;99338.13;;;10.90
40199;BMP280;25906;43.536;26.068;2023-12-29T09:39:39;99337.53;;;11.02
40199;BMP280;25906;43.536;26.068;2023-12-29T09:42:28;99335.63;;;11.02
40199;BMP280;25906;43.536;26.068;2023-12-29T09:45:16;99333.72;;;11.42
40199;BMP280;25906;43.536;26.068;2023-12-29T09:48:07;99330.63;;;11.44
40199;BMP280;25906;43.536;26.068;2023-12-29T09:50:53;99338.00;;;11.72
40199;BMP280;25906;43.536;26.068;2023-12-29T09:53:39;99343.03;;;11.67
40199;BMP280;25906;43.536;26.068;2023-12-29T09:56:26;99328.25;;;11.85
40199;BMP280;25906;43.536;26.068;2023-12-29T09:59:13;99325.56;;;11.69
40199;BMP280;25906;43.536;26.068;2023-12-29T10:01:59;99319.34;;;11.76
40199;BMP280;25906;43.536;26.068;2023-12-29T10:04:45;99316.72;;;11.92
40199;BMP280;25906;43.536;26.068;2023-12-29T10:07:37;99312.91;;;11.93
40199;BMP280;25906;43.536;26.068;2023-12-29T10:10:23;99316.78;;;12.04
40199;BMP280;25906;43.536;26.068;2023-12-29T10:13:11;99322.09;;;12.04
40199;BMP280;25906;43.536;26.068;2023-12-29T10:16:06;99315.28;;;12.03
40199;BMP280;25906;43.536;26.068;2023-12-29T10:22:15;99312.41;;;11.98
40199;BMP280;25906;43.536;26.068;2023-12-29T10:25:04;99303.84;;;12.23
40199;BMP280;25906;43.536;26.068;2023-12-29T10:27:49;99302.84;;;12.17
40199;BMP280;25906;43.536;26.068;2023-12-29T10:30:37;99307.50;;;12.29
40199;BMP280;25906;43.536;26.068;2023-12-29T10:33:23;99304.22;;;12.37
40199;BMP280;25906;43.536;26.068;2023-12-29T10:36:11;99291.31;;;12.39
40199;BMP280;25906;43.536;26.068;2023-12-29T10:39:06;99287.69;;;12.33
40199;BMP280;25906;43.536;26.068;2023-12-29T10:42:06;99284.25;;;12.49
40199;BMP280;25906;43.536;26.068;2023-12-29T10:45:09;99287.94;;;12.51
40199;BMP280;25906;43.536;26.068;2023-12-29T10:48:00;99284.13;;;12.52
40199;BMP280;25906;43.536;26.068;2023-12-29T10:50:45;99287.22;;;12.51
40199;BMP280;25906;43.536;26.068;2023-12-29T10:53:32;99277.66;;;12.53
40199;BMP280;25906;43.536;26.068;2023-12-29T10:56:18;99280.25;;;12.57
40199;BMP280;25906;43.536;26.068;2023-12-29T10:59:05;99274.97;;;12.70
40199;BMP280;25906;43.536;26.068;2023-12-29T11:01:51;99273.31;;;12.60
40199;BMP280;25906;43.536;26.068;2023-12-29T11:04:38;99270.16;;;12.65
40199;BMP280;25906;43.536;26.068;2023-12-29T11:07:33;99263.81;;;12.75
40199;BMP280;25906;43.536;26.068;2023-12-29T11:10:22;99265.19;;;12.79
40199;BMP280;25906;43.536;26.068;2023-12-29T11:13:08;99259.34;;;12.72
40199;BMP280;25906;43.536;26.068;2023-12-29T11:15:56;99254.38;;;12.74
40199;BMP280;25906;43.536;26.068;2023-12-29T11:18:43;99254.38;;;12.86
40199;BMP280;25906;43.536;26.068;2023-12-29T11:21:30;99243.22;;;12.91
40199;BMP280;25906;43.536;26.068;2023-12-29T11:24:16;99243.13;;;12.95
40199;BMP280;25906;43.536;26.068;2023-12-29T11:27:03;99238.44;;;12.99
40199;BMP280;25906;43.536;26.068;2023-12-29T11:29:49;99230.06;;;13.00
40199;BMP280;25906;43.536;26.068;2023-12-29T11:35:28;99221.88;;;12.95
40199;BMP280;25906;43.536;26.068;2023-12-29T11:39:17;99222.84;;;13.01
40199;BMP280;25906;43.536;26.068;2023-12-29T11:44:27;99226.44;;;13.07
40199;BMP280;25906;43.536;26.068;2023-12-29T11:47:37;99226.34;;;13.23
40199;BMP280;25906;43.536;26.068;2023-12-29T11:50:31;99222.22;;;13.22
40199;BMP280;25906;43.536;26.068;2023-12-29T11:53:31;99216.69;;;13.29
40199;BMP280;25906;43.536;26.068;2023-12-29T11:56:16;99214.44;;;13.40
40199;BMP280;25906;43.536;26.068;2023-12-29T11:59:28;99212.06;;;13.55
40199;BMP280;25906;43.536;26.068;2023-12-29T12:02:27;99211.34;;;13.55
40199;BMP280;25906;43.536;26.068;2023-12-29T12:05:48;99209.19;;;13.49
40199;BMP280;25906;43.536;26.068;2023-12-29T12:08:35;99204.09;;;13.55
40199;BMP280;25906;43.536;26.068;2023-12-29T12:14:47;99205.44;;;13.72
40199;BMP280;25906;43.536;26.068;2023-12-29T12:17:35;99196.50;;;13.66
40199;BMP280;25906;43.536;26.068;2023-12-29T12:20:22;99196.59;;;13.75
40199;BMP280;25906;43.536;26.068;2023-12-29T12:23:14;99198.41;;;13.78
40199;BMP280;25906;43.536;26.068;2023-12-29T12:26:01;99203.59;;;13.82
40199;BMP280;25906;43.536;26.068;2023-12-29T12:28:52;99200.84;;;13.85
40199;BMP280;25906;43.536;26.068;2023-12-29T12:31:51;99200.34;;;13.65
40199;BMP280;25906;43.536;26.068;2023-12-29T12:34:37;99198.34;;;13.91
40199;BMP280;25906;43.536;26.068;2023-12-29T12:37:28;99197.44;;;13.72
40199;BMP280;25906;43.536;26.068;2023-12-29T12:40:27;99196.69;;;13.84
40199;BMP280;25906;43.536;26.068;2023-12-29T12:43:16;99194.53;;;13.92
40199;BMP280;25906;43.536;26.068;2023-12-29T12:46:02;99193.44;;;14.02
40199;BMP280;25906;43.536;26.068;2023-12-29T12:48:49;99203.44;;;13.98
40199;BMP280;25906;43.536;26.068;2023-12-29T12:51:35;99191.81;;;14.04
40199;BMP280;25906;43.536;26.068;2023-12-29T12:54:21;99192.63;;;13.92
40199;BMP280;25906;43.536;26.068;2023-12-29T12:57:07;99200.47;;;13.96
40199;BMP280;25906;43.536;26.068;2023-12-29T12:59:53;99197.19;;;13.92
40199;BMP280;25906;43.536;26.068;2023-12-29T13:02:39;99185.47;;;13.89
40199;BMP280;25906;43.536;26.068;2023-12-29T13:05:25;99198.88;;;13.98
40199;BMP280;25906;43.536;26.068;2023-12-29T13:08:13;99183.13;;;13.91
40199;BMP280;25906;43.536;26.068;2023-12-29T13:10:59;99191.22;;;13.88
40199;BMP280;25906;43.536;26.068;2023-12-29T13:13:45;99186.56;;;13.92
40199;BMP280;25906;43.536;26.068;2023-12-29T13:16:35;99187.03;;;13.99
40199;BMP280;25906;43.536;26.068;2023-12-29T13:19:24;99186.22;;;13.90
40199;BMP280;25906;43.536;26.068;2023-12-29T13:22:11;99186.59;;;14.01
40199;BMP280;25906;43.536;26.068;2023-12-29T13:24:56;99183.56;;;13.90
40199;BMP280;25906;43.536;26.068;2023-12-29T13:27:42;99183.94;;;14.01
40199;BMP280;25906;43.536;26.068;2023-12-29T13:30:27;99181.13;;;13.83
40199;BMP280;25906;43.536;26.068;2023-12-29T13:42:51;99186.50;;;13.70
40199;BMP280;25906;43.536;26.068;2023-12-29T13:45:40;99189.69;;;13.65
40199;BMP280;25906;43.536;26.068;2023-12-29T13:48:27;99190.44;;;13.66
40199;BMP280;25906;43.536;26.068;2023-12-29T13:51:13;99194.66;;;13.54
40199;BMP280;25906;43.536;26.068;2023-12-29T13:54:02;99199.84;;;13.45
40199;BMP280;25906;43.536;26.068;2023-12-29T13:56:52;99207.53;;;13.30
40199;BMP280;25906;43.536;26.068;2023-12-29T13:59:38;99207.31;;;13.37
40199;BMP280;25906;43.536;26.068;2023-12-29T14:02:31;99205.19;;;13.32
40199;BMP280;25906;43.536;26.068;2023-12-29T14:10:50;99219.00;;;13.02
40199;BMP280;25906;43.536;26.068;2023-12-29T14:13:41;99220.72;;;13.21
40199;BMP280;25906;43.536;26.068;2023-12-29T14:16:27;99225.38;;;13.04
40199;BMP280;25906;43.536;26.068;2023-12-29T14:19:13;99218.59;;;13.03
40199;BMP280;25906;43.536;26.068;2023-12-29T14:21:58;99218.13;;;12.92
40199;BMP280;25906;43.536;26.068;2023-12-29T14:24:44;99219.63;;;12.81
40199;BMP280;25906;43.536;26.068;2023-12-29T14:27:29;99210.06;;;12.71
40199;BMP280;25906;43.536;26.068;2023-12-29T14:30:19;99208.06;;;12.75
40199;BMP280;25906;43.536;26.068;2023-12-29T14:33:04;99213.00;;;12.60
40199;BMP280;25906;43.536;26.068;2023-12-29T14:35:50;99203.88;;;12.61
40199;BMP280;25906;43.536;26.068;2023-12-29T14:38:35;99210.31;;;12.47
40199;BMP280;25906;43.536;26.068;2023-12-29T14:41:21;99215.16;;;12.36
40199;BMP280;25906;43.536;26.068;2023-12-29T14:44:06;99211.16;;;12.16
40199;BMP280;25906;43.536;26.068;2023-12-29T14:46:52;99203.13;;;12.19
40199;BMP280;25906;43.536;26.068;2023-12-29T14:49:37;99205.44;;;12.17
40199;BMP280;25906;43.536;26.068;2023-12-29T14:52:22;99208.97;;;12.27
40199;BMP280;25906;43.536;26.068;2023-12-29T14:55:08;99215.56;;;12.06
40199;BMP280;25906;43.536;26.068;2023-12-29T14:57:53;99216.81;;;12.01
40199;BMP280;25906;43.536;26.068;2023-12-29T15:00:39;99213.25;;;12.08
40199;BMP280;25906;43.536;26.068;2023-12-29T15:03:24;99220.53;;;12.04
40199;BMP280;25906;43.536;26.068;2023-12-29T15:06:10;99219.97;;;11.96
40199;BMP280;25906;43.536;26.068;2023-12-29T15:08:55;99216.84;;;11.85
40199;BMP280;25906;43.536;26.068;2023-12-29T15:11:40;99225.56;;;11.86
40199;BMP280;25906;43.536;26.068;2023-12-29T15:14:26;99226.06;;;11.65
40199;BMP280;25906;43.536;26.068;2023-12-29T15:17:12;99223.81;;;11.47
40199;BMP280;25906;43.536;26.068;2023-12-29T15:19:57;99227.22;;;11.64
40199;BMP280;25906;43.536;26.068;2023-12-29T15:22:43;99231.34;;;11.48
40199;BMP280;25906;43.536;26.068;2023-12-29T15:25:28;99232.25;;;11.42
40199;BMP280;25906;43.536;26.068;2023-12-29T15:28:14;99230.16;;;11.33
40199;BMP280;25906;43.536;26.068;2023-12-29T15:31:02;99237.03;;;11.31
40199;BMP280;25906;43.536;26.068;2023-12-29T15:33:47;99229.94;;;11.08
40199;BMP280;25906;43.536;26.068;2023-12-29T15:36:33;99237.34;;;10.97
40199;BMP280;25906;43.536;26.068;2023-12-29T15:39:18;99238.09;;;10.78
40199;BMP280;25906;43.536;26.068;2023-12-29T15:42:04;99241.03;;;10.64
40199;BMP280;25906;43.536;26.068;2023-12-29T15:44:49;99241.72;;;10.68
40199;BMP280;25906;43.536;26.068;2023-12-29T15:47:35;99243.69;;;10.64
40199;BMP280;25906;43.536;26.068;2023-12-29T15:50:20;99250.59;;;10.57
40199;BMP280;25906;43.536;26.068;2023-12-29T15:53:06;99242.88;;;10.67
40199;BMP280;25906;43.536;26.068;2023-12-29T15:55:51;99239.66;;;10.55
40199;BMP280;25906;43.536;26.068;2023-12-29T15:58:37;99241.22;;;10.53
40199;BMP280;25906;43.536;26.068;2023-12-29T16:01:23;99240.41;;;10.36
40199;BMP280;25906;43.536;26.068;2023-12-29T16:04:11;99243.78;;;10.37
40199;BMP280;25906;43.536;26.068;2023-12-29T16:06:56;99238.69;;;10.46
40199;BMP280;25906;43.536;26.068;2023-12-29T16:09:42;99238.78;;;10.42
40199;BMP280;25906;43.536;26.068;2023-12-29T16:12:27;99238.91;;;10.35
40199;BMP280;25906;43.536;26.068;2023-12-29T16:15:13;99247.88;;;10.18
40199;BMP280;25906;43.536;26.068;2023-12-29T16:17:58;99244.41;;;10.21
40199;BMP280;25906;43.536;26.068;2023-12-29T16:20:47;99252.53;;;10.10
40199;BMP280;25906;43.536;26.068;2023-12-29T16:23:32;99248.66;;;10.38